sensor_id;sensor_type;location;lat;lon;timestamp;temperature;humidity
3308;DHT22;1666;48.898;9.182;2023-11-21T00:00:49;7.80;99.90
3308;DHT22;1666;48.898;9.182;2023-11-21T00:03:19;7.80;99.90
3308;DHT22;1666;48.898;9.182;2023-11-21T00:05:50;7.80;99.90
3308;DHT22;1666;48.898;9.182;2023-11-21T00:08:20;7.90;99.90
3308;DHT22;1666;48.898;9.182;2023-11-21T00:10:50;7.90;99.90
3308;DHT22;1666;48.898;9.182;2023-11-21T00:13:22;7.90;99.90
3308;DHT22;1666;48.898;9.182;2023-11-21T00:15:54;7.90;99.90
3308;DHT22;1666;48.898;9.182;2023-11-21T00:18:24;7.90;99.90
3308;DHT22;1666;48.898;9.182;2023-11-21T00:20:55;7.90;99.90
3308;DHT22;1666;48.898;9.182;2023-11-21T00:23:26;7.90;99.90
3308;DHT22;1666;48.898;9.182;2023-11-21T00:25:56;8.00;99.90
3308;DHT22;1666;48.898;9.182;2023-11-21T00:28:26;8.00;99.90
3308;DHT22;1666;48.898;9.182;2023-11-21T00:30:59;8.00;99.90
3308;DHT22;1666;48.898;9.182;2023-11-21T00:33:31;8.00;99.90
3308;DHT22;1666;48.898;9.182;2023-11-21T00:36:02;8.00;99.90
3308;DHT22;1666;48.898;9.182;2023-11-21T00:38:36;8.00;99.90
3308;DHT22;1666;48.898;9.182;2023-11-21T00:41:07;8.00;99.90
3308;DHT22;1666;48.898;9.182;2023-11-21T00:43:37;8.00;99.90
3308;DHT22;1666;48.898;9.182;2023-11-21T00:46:10;8.00;99.90
3308;DHT22;1666;48.898;9.182;2023-11-21T00:48:40;8.10;99.90
3308;DHT22;1666;48.898;9.182;2023-11-21T00:51:10;8.10;99.90
3308;DHT22;1666;48.898;9.182;2023-11-21T00:53:40;8.10;99.90
3308;DHT22;1666;48.898;9.182;2023-11-21T00:56:10;8.10;99.90
3308;DHT22;1666;48.898;9.182;2023-11-21T00:58:40;8.10;99.90
3308;DHT22;1666;48.898;9.182;2023-11-21T01:01:16;8.10;99.90
3308;DHT22;1666;48.898;9.182;2023-11-21T01:03:46;8.20;99.90
3308;DHT22;1666;48.898;9.182;2023-11-21T01:06:16;8.20;99.90
3308;DHT22;1666;48.898;9.182;2023-11-21T01:08:47;8.20;99.90
3308;DHT22;1666;48.898;9.182;2023-11-21T01:11:18;8.20;99.90
3308;DHT22;1666;48.898;9.182;2023-11-21T01:13:48;8.30;99.90
3308;DHT22;1666;48.898;9.182;2023-11-21T01:16:21;8.30;99.90
3308;DHT22;1666;48.898;9.182;2023-11-21T01:18:52;8.30;99.90
3308;DHT22;1666;48.898;9.182;2023-11-21T01:21:22;8.30;99.90
3308;DHT22;1666;48.898;9.182;2023-11-21T01:23:52;8.30;99.90
3308;DHT22;1666;48.898;9.182;2023-11-21T01:26:22;8.30;99.90
3308;DHT22;1666;48.898;9.182;2023-11-21T01:28:52;8.30;99.90
3308;DHT22;1666;48.898;9.182;2023-11-21T01:31:24;8.20;99.90
3308;DHT22;1666;48.898;9.182;2023-11-21T01:33:57;8.30;99.90
3308;DHT22;1666;48.898;9.182;2023-11-21T01:36:30;8.20;99.90
3308;DHT22;1666;48.898;9.182;2023-11-21T01:39:02;8.20;99.90
3308;DHT22;1666;48.898;9.182;2023-11-21T01:41:35;8.20;99.90
3308;DHT22;1666;48.898;9.182;2023-11-21T01:44:05;8.30;99.90
3308;DHT22;1666;48.898;9.182;2023-11-21T01:46:39;8.20;99.90
3308;DHT22;1666;48.898;9.182;2023-11-21T01:49:10;8.20;99.90
3308;DHT22;1666;48.898;9.182;2023-11-21T01:51:43;8.30;99.90
3308;DHT22;1666;48.898;9.182;2023-11-21T01:54:16;8.30;99.90
3308;DHT22;1666;48.898;9.182;2023-11-21T01:56:47;8.30;99.90
3308;DHT22;1666;48.898;9.182;2023-11-21T01:59:19;8.30;99.90
3308;DHT22;1666;48.898;9.182;2023-11-21T02:01:52;8.20;99.90
3308;DHT22;1666;48.898;9.182;2023-11-21T02:04:24;8.20;99.90
3308;DHT22;1666;48.898;9.182;2023-11-21T02:06:55;8.20;99.90
3308;DHT22;1666;48.898;9.182;2023-11-21T02:09:26;8.20;99.90
3308;DHT22;1666;48.898;9.182;2023-11-21T02:11:57;8.20;99.90
3308;DHT22;1666;48.898;9.182;2023-11-21T02:14:28;8.20;99.90
3308;DHT22;1666;48.898;9.182;2023-11-21T02:17:01;8.20;99.90
3308;DHT22;1666;48.898;9.182;2023-11-21T02:19:31;8.20;99.90
3308;DHT22;1666;48.898;9.182;2023-11-21T02:22:02;8.30;99.90
3308;DHT22;1666;48.898;9.182;2023-11-21T02:24:36;8.30;99.90
3308;DHT22;1666;48.898;9.182;2023-11-21T02:27:06;8.30;99.90
3308;DHT22;1666;48.898;9.182;2023-11-21T02:29:37;8.30;99.90
3308;DHT22;1666;48.898;9.182;2023-11-21T02:32:07;8.30;99.90
3308;DHT22;1666;48.898;9.182;2023-11-21T02:34:37;8.30;99.90
3308;DHT22;1666;48.898;9.182;2023-11-21T02:37:08;8.30;99.90
3308;DHT22;1666;48.898;9.182;2023-11-21T02:39:41;8.30;99.90
3308;DHT22;1666;48.898;9.182;2023-11-21T02:42:12;8.40;99.90
3308;DHT22;1666;48.898;9.182;2023-11-21T02:44:42;8.30;99.90
3308;DHT22;1666;48.898;9.182;2023-11-21T02:47:12;8.30;99.90
3308;DHT22;1666;48.898;9.182;2023-11-21T02:49:42;8.30;99.90
3308;DHT22;1666;48.898;9.182;2023-11-21T02:52:12;8.30;99.90
3308;DHT22;1666;48.898;9.182;2023-11-21T02:54:44;8.30;99.90
3308;DHT22;1666;48.898;9.182;2023-11-21T02:57:15;8.30;99.90
3308;DHT22;1666;48.898;9.182;2023-11-21T02:59:45;8.30;99.90
3308;DHT22;1666;48.898;9.182;2023-11-21T03:02:16;8.30;99.90
3308;DHT22;1666;48.898;9.182;2023-11-21T03:04:46;8.30;99.90
3308;DHT22;1666;48.898;9.182;2023-11-21T03:07:17;8.20;99.90
3308;DHT22;1666;48.898;9.182;2023-11-21T03:09:50;8.20;99.90
3308;DHT22;1666;48.898;9.182;2023-11-21T03:12:20;8.20;99.90
3308;DHT22;1666;48.898;9.182;2023-11-21T03:14:50;8.30;99.90
3308;DHT22;1666;48.898;9.182;2023-11-21T03:17:21;8.30;99.90
3308;DHT22;1666;48.898;9.182;2023-11-21T03:19:51;8.40;99.90
3308;DHT22;1666;48.898;9.182;2023-11-21T03:22:22;8.30;99.90
3308;DHT22;1666;48.898;9.182;2023-11-21T03:24:54;8.40;99.90
3308;DHT22;1666;48.898;9.182;2023-11-21T03:27:26;8.30;99.90
3308;DHT22;1666;48.898;9.182;2023-11-21T03:29:56;8.30;99.90
3308;DHT22;1666;48.898;9.182;2023-11-21T03:32:26;8.30;99.90
3308;DHT22;1666;48.898;9.182;2023-11-21T03:34:57;8.30;99.90
3308;DHT22;1666;48.898;9.182;2023-11-21T03:37:29;8.30;99.90
3308;DHT22;1666;48.898;9.182;2023-11-21T03:40:04;8.30;99.90
3308;DHT22;1666;48.898;9.182;2023-11-21T03:42:35;8.30;99.90
3308;DHT22;1666;48.898;9.182;2023-11-21T03:45:06;8.20;99.90
3308;DHT22;1666;48.898;9.182;2023-11-21T03:47:37;8.20;99.90
3308;DHT22;1666;48.898;9.182;2023-11-21T03:50:08;8.20;99.90
3308;DHT22;1666;48.898;9.182;2023-11-21T03:52:38;8.20;99.90
3308;DHT22;1666;48.898;9.182;2023-11-21T03:55:11;8.20;99.90
3308;DHT22;1666;48.898;9.182;2023-11-21T03:57:42;8.20;99.90
3308;DHT22;1666;48.898;9.182;2023-11-21T04:00:31;8.20;99.90
3308;DHT22;1666;48.898;9.182;2023-11-21T04:03:19;8.10;99.90
3308;DHT22;1666;48.898;9.182;2023-11-21T04:05:50;8.10;99.90
3308;DHT22;1666;48.898;9.182;2023-11-21T04:08:20;8.10;99.90
3308;DHT22;1666;48.898;9.182;2023-11-21T04:10:52;8.10;99.90
3308;DHT22;1666;48.898;9.182;2023-11-21T04:13:23;8.20;99.90
3308;DHT22;1666;48.898;9.182;2023-11-21T04:15:53;8.20;99.90
3308;DHT22;1666;48.898;9.182;2023-11-21T04:18:23;8.20;99.90
3308;DHT22;1666;48.898;9.182;2023-11-21T04:20:54;8.20;99.90
3308;DHT22;1666;48.898;9.182;2023-11-21T04:23:24;8.20;99.90
3308;DHT22;1666;48.898;9.182;2023-11-21T04:25:57;8.20;99.90
3308;DHT22;1666;48.898;9.182;2023-11-21T04:28:27;8.20;99.90
3308;DHT22;1666;48.898;9.182;2023-11-21T04:30:57;8.20;99.90
3308;DHT22;1666;48.898;9.182;2023-11-21T04:33:28;8.10;99.90
3308;DHT22;1666;48.898;9.182;2023-11-21T04:35:58;8.10;99.90
3308;DHT22;1666;48.898;9.182;2023-11-21T04:38:29;8.10;99.90
3308;DHT22;1666;48.898;9.182;2023-11-21T04:41:02;8.10;99.90
3308;DHT22;1666;48.898;9.182;2023-11-21T04:43:32;8.10;99.90
3308;DHT22;1666;48.898;9.182;2023-11-21T04:46:03;8.10;99.90
3308;DHT22;1666;48.898;9.182;2023-11-21T04:48:34;8.10;99.90
3308;DHT22;1666;48.898;9.182;2023-11-21T04:51:04;8.10;99.90
3308;DHT22;1666;48.898;9.182;2023-11-21T04:53:34;8.10;99.90
3308;DHT22;1666;48.898;9.182;2023-11-21T04:56:07;8.10;99.90
3308;DHT22;1666;48.898;9.182;2023-11-21T04:58:38;8.10;99.90
3308;DHT22;1666;48.898;9.182;2023-11-21T05:01:08;8.10;99.90
3308;DHT22;1666;48.898;9.182;2023-11-21T05:03:39;8.10;99.90
3308;DHT22;1666;48.898;9.182;2023-11-21T05:06:09;8.10;99.90
3308;DHT22;1666;48.898;9.182;2023-11-21T05:08:40;8.00;99.90
3308;DHT22;1666;48.898;9.182;2023-11-21T05:11:23;8.00;99.90
3308;DHT22;1666;48.898;9.182;2023-11-21T05:13:53;8.00;99.90
3308;DHT22;1666;48.898;9.182;2023-11-21T05:16:26;8.00;99.90
3308;DHT22;1666;48.898;9.182;2023-11-21T05:18:57;8.00;99.90
3308;DHT22;1666;48.898;9.182;2023-11-21T05:21:28;8.00;99.90
3308;DHT22;1666;48.898;9.182;2023-11-21T05:23:59;8.00;99.90
3308;DHT22;1666;48.898;9.182;2023-11-21T05:26:32;8.00;99.90
3308;DHT22;1666;48.898;9.182;2023-11-21T05:29:02;8.00;99.90
3308;DHT22;1666;48.898;9.182;2023-11-21T05:31:32;7.90;99.90
3308;DHT22;1666;48.898;9.182;2023-11-21T05:34:03;7.90;99.90
3308;DHT22;1666;48.898;9.182;2023-11-21T05:36:34;8.00;99.90
3308;DHT22;1666;48.898;9.182;2023-11-21T05:39:04;7.90;99.90
3308;DHT22;1666;48.898;9.182;2023-11-21T05:41:37;7.90;99.90
3308;DHT22;1666;48.898;9.182;2023-11-21T05:44:07;8.00;99.90
3308;DHT22;1666;48.898;9.182;2023-11-21T05:46:37;8.00;99.90
3308;DHT22;1666;48.898;9.182;2023-11-21T05:49:08;7.90;99.90
3308;DHT22;1666;48.898;9.182;2023-11-21T05:51:38;7.90;99.90
3308;DHT22;1666;48.898;9.182;2023-11-21T05:54:08;7.90;99.90
3308;DHT22;1666;48.898;9.182;2023-11-21T05:56:41;7.90;99.90
3308;DHT22;1666;48.898;9.182;2023-11-21T05:59:11;8.00;99.90
3308;DHT22;1666;48.898;9.182;2023-11-21T06:01:42;7.90;99.90
3308;DHT22;1666;48.898;9.182;2023-11-21T06:04:13;8.00;99.90
3308;DHT22;1666;48.898;9.182;2023-11-21T06:06:43;8.00;99.90
3308;DHT22;1666;48.898;9.182;2023-11-21T06:09:13;7.90;99.90
3308;DHT22;1666;48.898;9.182;2023-11-21T06:11:46;8.00;99.90
3308;DHT22;1666;48.898;9.182;2023-11-21T06:14:16;8.00;99.90
3308;DHT22;1666;48.898;9.182;2023-11-21T06:16:49;7.90;99.90
3308;DHT22;1666;48.898;9.182;2023-11-21T06:19:19;7.90;99.90
3308;DHT22;1666;48.898;9.182;2023-11-21T06:21:50;7.90;99.90
3308;DHT22;1666;48.898;9.182;2023-11-21T06:24:20;8.00;99.90
3308;DHT22;1666;48.898;9.182;2023-11-21T06:26:53;7.90;99.90
3308;DHT22;1666;48.898;9.182;2023-11-21T06:29:23;7.90;99.90
3308;DHT22;1666;48.898;9.182;2023-11-21T06:31:53;7.90;99.90
3308;DHT22;1666;48.898;9.182;2023-11-21T06:34:26;7.90;99.90
3308;DHT22;1666;48.898;9.182;2023-11-21T06:36:57;7.90;99.90
3308;DHT22;1666;48.898;9.182;2023-11-21T06:39:27;7.90;99.90
3308;DHT22;1666;48.898;9.182;2023-11-21T06:42:00;7.90;99.90
3308;DHT22;1666;48.898;9.182;2023-11-21T06:44:31;7.90;99.90
3308;DHT22;1666;48.898;9.182;2023-11-21T06:47:02;7.90;99.90
3308;DHT22;1666;48.898;9.182;2023-11-21T06:49:33;7.90;99.90
3308;DHT22;1666;48.898;9.182;2023-11-21T06:52:03;8.00;99.90
3308;DHT22;1666;48.898;9.182;2023-11-21T06:54:34;8.00;99.90
3308;DHT22;1666;48.898;9.182;2023-11-21T06:57:07;8.10;99.90
3308;DHT22;1666;48.898;9.182;2023-11-21T06:59:37;8.00;99.90
3308;DHT22;1666;48.898;9.182;2023-11-21T07:02:08;8.10;99.90
3308;DHT22;1666;48.898;9.182;2023-11-21T07:04:38;8.10;99.90
3308;DHT22;1666;48.898;9.182;2023-11-21T07:07:08;8.10;99.90
3308;DHT22;1666;48.898;9.182;2023-11-21T07:09:39;8.10;99.90
3308;DHT22;1666;48.898;9.182;2023-11-21T07:12:11;8.20;99.90
3308;DHT22;1666;48.898;9.182;2023-11-21T07:14:42;8.10;99.90
3308;DHT22;1666;48.898;9.182;2023-11-21T07:17:13;8.10;99.90
3308;DHT22;1666;48.898;9.182;2023-11-21T07:19:44;8.10;99.90
3308;DHT22;1666;48.898;9.182;2023-11-21T07:22:14;8.10;99.90
3308;DHT22;1666;48.898;9.182;2023-11-21T07:24:49;8.20;99.90
3308;DHT22;1666;48.898;9.182;2023-11-21T07:27:22;8.20;99.90
3308;DHT22;1666;48.898;9.182;2023-11-21T07:29:52;8.30;99.90
3308;DHT22;1666;48.898;9.182;2023-11-21T07:32:22;8.30;99.90
3308;DHT22;1666;48.898;9.182;2023-11-21T07:34:52;8.30;99.90
3308;DHT22;1666;48.898;9.182;2023-11-21T07:37:24;8.40;99.90
3308;DHT22;1666;48.898;9.182;2023-11-21T07:39:56;8.30;99.90
3308;DHT22;1666;48.898;9.182;2023-11-21T07:42:29;8.40;99.90
3308;DHT22;1666;48.898;9.182;2023-11-21T07:44:59;8.50;99.90
3308;DHT22;1666;48.898;9.182;2023-11-21T07:47:30;8.50;99.90
3308;DHT22;1666;48.898;9.182;2023-11-21T07:50:03;8.50;99.90
3308;DHT22;1666;48.898;9.182;2023-11-21T07:52:35;8.50;99.90
3308;DHT22;1666;48.898;9.182;2023-11-21T07:55:06;8.70;99.90
3308;DHT22;1666;48.898;9.182;2023-11-21T07:57:38;8.70;99.90
3308;DHT22;1666;48.898;9.182;2023-11-21T08:00:10;8.80;99.90
3308;DHT22;1666;48.898;9.182;2023-11-21T08:02:42;8.70;92.00
3308;DHT22;1666;48.898;9.182;2023-11-21T08:05:13;8.70;70.80
3308;DHT22;1666;48.898;9.182;2023-11-21T08:07:54;8.70;66.40
3308;DHT22;1666;48.898;9.182;2023-11-21T08:10:24;8.80;68.80
3308;DHT22;1666;48.898;9.182;2023-11-21T08:12:57;8.90;66.80
3308;DHT22;1666;48.898;9.182;2023-11-21T08:15:27;8.90;54.40
3308;DHT22;1666;48.898;9.182;2023-11-21T08:17:59;9.00;57.20
3308;DHT22;1666;48.898;9.182;2023-11-21T08:20:29;9.10;51.40
3308;DHT22;1666;48.898;9.182;2023-11-21T08:22:59;9.10;39.70
3308;DHT22;1666;48.898;9.182;2023-11-21T08:25:30;9.10;29.20
3308;DHT22;1666;48.898;9.182;2023-11-21T08:28:04;9.10;37.70
3308;DHT22;1666;48.898;9.182;2023-11-21T08:30:34;9.20;41.20
3308;DHT22;1666;48.898;9.182;2023-11-21T08:33:04;9.20;37.80
3308;DHT22;1666;48.898;9.182;2023-11-21T08:35:35;9.20;46.20
3308;DHT22;1666;48.898;9.182;2023-11-21T08:38:06;9.20;37.80
3308;DHT22;1666;48.898;9.182;2023-11-21T08:40:37;9.10;29.90
3308;DHT22;1666;48.898;9.182;2023-11-21T08:43:10;9.20;40.20
3308;DHT22;1666;48.898;9.182;2023-11-21T08:45:41;9.30;46.10
3308;DHT22;1666;48.898;9.182;2023-11-21T08:48:11;9.50;50.10
3308;DHT22;1666;48.898;9.182;2023-11-21T08:50:42;9.40;41.70
3308;DHT22;1666;48.898;9.182;2023-11-21T08:53:12;9.50;44.20
3308;DHT22;1666;48.898;9.182;2023-11-21T08:55:43;9.30;29.70
3308;DHT22;1666;48.898;9.182;2023-11-21T08:58:16;9.40;51.20
3308;DHT22;1666;48.898;9.182;2023-11-21T09:00:46;9.40;47.10
3308;DHT22;1666;48.898;9.182;2023-11-21T09:03:16;9.50;46.50
3308;DHT22;1666;48.898;9.182;2023-11-21T09:05:46;9.00;40.40
3308;DHT22;1666;48.898;9.182;2023-11-21T09:08:16;9.10;75.90
3308;DHT22;1666;48.898;9.182;2023-11-21T09:10:46;9.40;78.20
3308;DHT22;1666;48.898;9.182;2023-11-21T09:13:19;9.20;47.10
3308;DHT22;1666;48.898;9.182;2023-11-21T09:15:51;9.20;68.50
3308;DHT22;1666;48.898;9.182;2023-11-21T09:18:22;9.10;87.40
3308;DHT22;1666;48.898;9.182;2023-11-21T09:20:52;9.20;87.80
3308;DHT22;1666;48.898;9.182;2023-11-21T09:23:22;9.10;93.30
3308;DHT22;1666;48.898;9.182;2023-11-21T09:25:52;9.10;99.80
3308;DHT22;1666;48.898;9.182;2023-11-21T09:28:27;9.10;99.90
3308;DHT22;1666;48.898;9.182;2023-11-21T09:30:57;9.20;99.90
3308;DHT22;1666;48.898;9.182;2023-11-21T09:33:30;9.30;99.90
3308;DHT22;1666;48.898;9.182;2023-11-21T09:36:01;9.20;98.80
3308;DHT22;1666;48.898;9.182;2023-11-21T09:38:32;9.20;99.90
3308;DHT22;1666;48.898;9.182;2023-11-21T09:41:03;9.30;99.90
3308;DHT22;1666;48.898;9.182;2023-11-21T09:43:37;9.40;99.90
3308;DHT22;1666;48.898;9.182;2023-11-21T09:46:09;9.30;99.90
3308;DHT22;1666;48.898;9.182;2023-11-21T09:48:44;9.40;99.90
3308;DHT22;1666;48.898;9.182;2023-11-21T09:51:15;9.40;99.90
3308;DHT22;1666;48.898;9.182;2023-11-21T09:53:49;9.30;99.90
3308;DHT22;1666;48.898;9.182;2023-11-21T09:56:19;9.30;99.90
3308;DHT22;1666;48.898;9.182;2023-11-21T09:58:54;9.10;99.90
3308;DHT22;1666;48.898;9.182;2023-11-21T10:01:26;9.00;99.90
3308;DHT22;1666;48.898;9.182;2023-11-21T10:03:57;9.00;99.90
3308;DHT22;1666;48.898;9.182;2023-11-21T10:06:28;9.00;99.90
3308;DHT22;1666;48.898;9.182;2023-11-21T10:09:00;9.10;99.90
3308;DHT22;1666;48.898;9.182;2023-11-21T10:11:31;9.20;99.90
3308;DHT22;1666;48.898;9.182;2023-11-21T10:14:04;9.20;99.90
3308;DHT22;1666;48.898;9.182;2023-11-21T10:16:34;8.80;99.90
3308;DHT22;1666;48.898;9.182;2023-11-21T10:19:05;8.90;99.90
3308;DHT22;1666;48.898;9.182;2023-11-21T10:21:38;9.00;99.90
3308;DHT22;1666;48.898;9.182;2023-11-21T10:24:09;9.00;99.90
3308;DHT22;1666;48.898;9.182;2023-11-21T10:26:40;9.00;99.90
3308;DHT22;1666;48.898;9.182;2023-11-21T10:29:22;9.20;99.90
3308;DHT22;1666;48.898;9.182;2023-11-21T10:31:54;9.20;99.90
3308;DHT22;1666;48.898;9.182;2023-11-21T10:34:26;9.30;99.90
3308;DHT22;1666;48.898;9.182;2023-11-21T10:36:56;9.40;99.90
3308;DHT22;1666;48.898;9.182;2023-11-21T10:39:27;9.50;99.90
3308;DHT22;1666;48.898;9.182;2023-11-21T10:41:58;9.60;99.90
3308;DHT22;1666;48.898;9.182;2023-11-21T10:44:31;9.70;99.90
3308;DHT22;1666;48.898;9.182;2023-11-21T10:47:02;9.70;99.90
3308;DHT22;1666;48.898;9.182;2023-11-21T10:49:32;9.80;99.90
3308;DHT22;1666;48.898;9.182;2023-11-21T10:52:03;9.70;88.60
3308;DHT22;1666;48.898;9.182;2023-11-21T10:54:33;9.80;80.00
3308;DHT22;1666;48.898;9.182;2023-11-21T10:57:05;9.90;69.30
3308;DHT22;1666;48.898;9.182;2023-11-21T10:59:38;10.00;63.10
3308;DHT22;1666;48.898;9.182;2023-11-21T11:02:19;10.10;48.40
3308;DHT22;1666;48.898;9.182;2023-11-21T11:04:52;10.20;34.70
3308;DHT22;1666;48.898;9.182;2023-11-21T11:07:26;10.10;23.00
3308;DHT22;1666;48.898;9.182;2023-11-21T11:09:59;10.20;16.40
3308;DHT22;1666;48.898;9.182;2023-11-21T11:12:31;10.10;14.00
3308;DHT22;1666;48.898;9.182;2023-11-21T11:15:06;9.70;21.10
3308;DHT22;1666;48.898;9.182;2023-11-21T11:17:37;9.90;32.70
3308;DHT22;1666;48.898;9.182;2023-11-21T11:20:12;9.70;49.60
3308;DHT22;1666;48.898;9.182;2023-11-21T11:23:07;9.70;88.30
3308;DHT22;1666;48.898;9.182;2023-11-21T11:25:53;9.30;99.90
3308;DHT22;1666;48.898;9.182;2023-11-21T11:28:35;9.40;99.90
3308;DHT22;1666;48.898;9.182;2023-11-21T11:31:15;9.30;99.90
3308;DHT22;1666;48.898;9.182;2023-11-21T11:33:52;9.50;99.90
3308;DHT22;1666;48.898;9.182;2023-11-21T11:36:25;9.60;99.90
3308;DHT22;1666;48.898;9.182;2023-11-21T11:38:56;9.60;99.90
3308;DHT22;1666;48.898;9.182;2023-11-21T11:41:27;9.60;99.90
3308;DHT22;1666;48.898;9.182;2023-11-21T11:44:02;9.40;99.90
3308;DHT22;1666;48.898;9.182;2023-11-21T11:46:45;9.30;99.90
3308;DHT22;1666;48.898;9.182;2023-11-21T11:49:23;9.40;99.90
3308;DHT22;1666;48.898;9.182;2023-11-21T11:54:56;9.50;99.90
3308;DHT22;1666;48.898;9.182;2023-11-21T11:57:27;9.50;99.90
3308;DHT22;1666;48.898;9.182;2023-11-21T12:00:15;9.40;99.90
3308;DHT22;1666;48.898;9.182;2023-11-21T12:02:51;9.40;99.90
3308;DHT22;1666;48.898;9.182;2023-11-21T12:05:22;9.40;99.90
3308;DHT22;1666;48.898;9.182;2023-11-21T12:07:56;9.50;99.90
3308;DHT22;1666;48.898;9.182;2023-11-21T12:10:29;9.70;99.90
3308;DHT22;1666;48.898;9.182;2023-11-21T12:13:00;9.70;99.90
3308;DHT22;1666;48.898;9.182;2023-11-21T12:15:32;9.90;99.90
3308;DHT22;1666;48.898;9.182;2023-11-21T12:18:06;10.00;99.90
3308;DHT22;1666;48.898;9.182;2023-11-21T12:20:36;10.20;99.90
3308;DHT22;1666;48.898;9.182;2023-11-21T12:23:10;10.10;64.00
3308;DHT22;1666;48.898;9.182;2023-11-21T12:25:42;10.10;71.10
3308;DHT22;1666;48.898;9.182;2023-11-21T12:28:12;10.10;74.00
3308;DHT22;1666;48.898;9.182;2023-11-21T12:30:44;10.10;77.90
3308;DHT22;1666;48.898;9.182;2023-11-21T12:33:17;9.80;67.20
3308;DHT22;1666;48.898;9.182;2023-11-21T12:35:47;9.80;78.80
3308;DHT22;1666;48.898;9.182;2023-11-21T12:38:17;9.80;75.80
3308;DHT22;1666;48.898;9.182;2023-11-21T12:40:47;9.60;99.90
3308;DHT22;1666;48.898;9.182;2023-11-21T12:43:17;9.50;99.90
3308;DHT22;1666;48.898;9.182;2023-11-21T12:45:48;9.40;99.90
3308;DHT22;1666;48.898;9.182;2023-11-21T12:48:23;9.30;99.90
3308;DHT22;1666;48.898;9.182;2023-11-21T12:50:53;9.10;99.90
3308;DHT22;1666;48.898;9.182;2023-11-21T12:53:27;9.00;99.90
3308;DHT22;1666;48.898;9.182;2023-11-21T12:56:07;9.00;99.90
3308;DHT22;1666;48.898;9.182;2023-11-21T12:58:39;9.00;99.90
3308;DHT22;1666;48.898;9.182;2023-11-21T13:01:14;9.00;99.90
3308;DHT22;1666;48.898;9.182;2023-11-21T13:03:50;8.80;99.90
3308;DHT22;1666;48.898;9.182;2023-11-21T13:06:20;8.90;99.90
3308;DHT22;1666;48.898;9.182;2023-11-21T13:08:52;8.80;99.90
3308;DHT22;1666;48.898;9.182;2023-11-21T13:11:24;8.90;99.90
3308;DHT22;1666;48.898;9.182;2023-11-21T13:13:58;8.90;99.90
3308;DHT22;1666;48.898;9.182;2023-11-21T13:16:28;8.90;99.90
3308;DHT22;1666;48.898;9.182;2023-11-21T13:19:01;8.90;99.90
3308;DHT22;1666;48.898;9.182;2023-11-21T13:21:31;8.90;99.90
3308;DHT22;1666;48.898;9.182;2023-11-21T13:24:02;8.90;99.90
3308;DHT22;1666;48.898;9.182;2023-11-21T13:26:33;8.90;99.90
3308;DHT22;1666;48.898;9.182;2023-11-21T13:29:03;8.90;99.90
3308;DHT22;1666;48.898;9.182;2023-11-21T13:31:34;9.00;99.90
3308;DHT22;1666;48.898;9.182;2023-11-21T13:34:08;9.00;99.90
3308;DHT22;1666;48.898;9.182;2023-11-21T13:36:47;9.00;99.90
3308;DHT22;1666;48.898;9.182;2023-11-21T13:39:21;9.00;99.90
3308;DHT22;1666;48.898;9.182;2023-11-21T13:41:51;9.00;99.90
3308;DHT22;1666;48.898;9.182;2023-11-21T13:44:22;8.90;99.90
3308;DHT22;1666;48.898;9.182;2023-11-21T13:47:02;9.00;99.90
3308;DHT22;1666;48.898;9.182;2023-11-21T13:49:35;8.90;99.90
3308;DHT22;1666;48.898;9.182;2023-11-21T13:52:08;9.10;99.90
3308;DHT22;1666;48.898;9.182;2023-11-21T13:54:42;9.00;99.90
3308;DHT22;1666;48.898;9.182;2023-11-21T13:57:13;9.00;99.90
3308;DHT22;1666;48.898;9.182;2023-11-21T13:59:43;9.10;99.90
3308;DHT22;1666;48.898;9.182;2023-11-21T14:02:13;9.10;99.90
3308;DHT22;1666;48.898;9.182;2023-11-21T14:04:48;9.00;99.90
3308;DHT22;1666;48.898;9.182;2023-11-21T14:07:26;9.00;99.90
3308;DHT22;1666;48.898;9.182;2023-11-21T14:10:04;9.00;99.90
3308;DHT22;1666;48.898;9.182;2023-11-21T14:12:40;9.00;99.90
3308;DHT22;1666;48.898;9.182;2023-11-21T14:15:10;9.00;99.90
3308;DHT22;1666;48.898;9.182;2023-11-21T14:17:44;9.00;99.90
3308;DHT22;1666;48.898;9.182;2023-11-21T14:20:17;9.00;99.90
3308;DHT22;1666;48.898;9.182;2023-11-21T14:22:48;9.00;99.90
3308;DHT22;1666;48.898;9.182;2023-11-21T14:25:18;9.10;99.90
3308;DHT22;1666;48.898;9.182;2023-11-21T14:27:50;9.10;99.90
3308;DHT22;1666;48.898;9.182;2023-11-21T14:30:20;9.00;99.90
3308;DHT22;1666;48.898;9.182;2023-11-21T14:32:50;9.00;99.90
3308;DHT22;1666;48.898;9.182;2023-11-21T14:35:23;9.10;99.90
3308;DHT22;1666;48.898;9.182;2023-11-21T14:37:53;9.00;99.90
3308;DHT22;1666;48.898;9.182;2023-11-21T14:40:25;9.10;99.90
3308;DHT22;1666;48.898;9.182;2023-11-21T14:43:00;9.10;99.90
3308;DHT22;1666;48.898;9.182;2023-11-21T14:45:32;9.20;99.90
3308;DHT22;1666;48.898;9.182;2023-11-21T14:48:03;9.10;99.90
3308;DHT22;1666;48.898;9.182;2023-11-21T14:50:46;9.00;99.90
3308;DHT22;1666;48.898;9.182;2023-11-21T14:53:41;9.00;99.90
3308;DHT22;1666;48.898;9.182;2023-11-21T14:56:20;9.00;99.90
3308;DHT22;1666;48.898;9.182;2023-11-21T14:58:54;8.90;99.90
3308;DHT22;1666;48.898;9.182;2023-11-21T15:01:23;8.90;99.90
3308;DHT22;1666;48.898;9.182;2023-11-21T15:04:10;8.90;99.90
3308;DHT22;1666;48.898;9.182;2023-11-21T15:06:50;8.80;99.90
3308;DHT22;1666;48.898;9.182;2023-11-21T15:09:23;8.80;99.90
3308;DHT22;1666;48.898;9.182;2023-11-21T15:12:02;8.80;99.90
3308;DHT22;1666;48.898;9.182;2023-11-21T15:14:42;8.80;99.90
3308;DHT22;1666;48.898;9.182;2023-11-21T15:17:13;8.80;99.90
3308;DHT22;1666;48.898;9.182;2023-11-21T15:19:50;8.80;99.90
3308;DHT22;1666;48.898;9.182;2023-11-21T15:22:23;8.80;99.90
3308;DHT22;1666;48.898;9.182;2023-11-21T15:24:54;8.80;99.90
3308;DHT22;1666;48.898;9.182;2023-11-21T15:27:25;8.80;99.90
3308;DHT22;1666;48.898;9.182;2023-11-21T15:29:55;8.70;99.90
3308;DHT22;1666;48.898;9.182;2023-11-21T15:32:25;8.70;99.90
3308;DHT22;1666;48.898;9.182;2023-11-21T15:34:55;8.70;99.90
3308;DHT22;1666;48.898;9.182;2023-11-21T15:37:28;8.70;99.90
3308;DHT22;1666;48.898;9.182;2023-11-21T15:39:58;8.60;99.90
3308;DHT22;1666;48.898;9.182;2023-11-21T15:42:28;8.60;99.90
3308;DHT22;1666;48.898;9.182;2023-11-21T15:44:58;8.60;99.90
3308;DHT22;1666;48.898;9.182;2023-11-21T15:47:28;8.60;99.90
3308;DHT22;1666;48.898;9.182;2023-11-21T15:49:58;8.60;99.90
3308;DHT22;1666;48.898;9.182;2023-11-21T15:52:34;8.50;99.90
3308;DHT22;1666;48.898;9.182;2023-11-21T15:55:22;8.50;99.90
3308;DHT22;1666;48.898;9.182;2023-11-21T15:57:52;8.50;99.90
3308;DHT22;1666;48.898;9.182;2023-11-21T16:00:22;8.40;99.90
3308;DHT22;1666;48.898;9.182;2023-11-21T16:02:53;8.40;99.90
3308;DHT22;1666;48.898;9.182;2023-11-21T16:05:25;8.40;99.90
3308;DHT22;1666;48.898;9.182;2023-11-21T16:07:58;8.30;99.90
3308;DHT22;1666;48.898;9.182;2023-11-21T16:10:28;8.30;99.90
3308;DHT22;1666;48.898;9.182;2023-11-21T16:12:58;8.20;99.90
3308;DHT22;1666;48.898;9.182;2023-11-21T16:15:30;8.20;99.90
3308;DHT22;1666;48.898;9.182;2023-11-21T16:18:01;8.10;99.90
3308;DHT22;1666;48.898;9.182;2023-11-21T16:20:31;8.00;99.90
3308;DHT22;1666;48.898;9.182;2023-11-21T16:23:03;8.00;99.90
3308;DHT22;1666;48.898;9.182;2023-11-21T16:25:35;7.90;99.90
3308;DHT22;1666;48.898;9.182;2023-11-21T16:28:05;7.90;99.90
3308;DHT22;1666;48.898;9.182;2023-11-21T16:30:35;7.90;99.90
3308;DHT22;1666;48.898;9.182;2023-11-21T16:33:05;7.90;99.90
3308;DHT22;1666;48.898;9.182;2023-11-21T16:35:35;7.90;99.90
3308;DHT22;1666;48.898;9.182;2023-11-21T16:38:09;7.90;99.90
3308;DHT22;1666;48.898;9.182;2023-11-21T16:40:39;7.80;99.90
3308;DHT22;1666;48.898;9.182;2023-11-21T16:43:12;7.80;99.90
3308;DHT22;1666;48.898;9.182;2023-11-21T16:45:42;7.80;99.90
3308;DHT22;1666;48.898;9.182;2023-11-21T16:48:16;7.70;99.90
3308;DHT22;1666;48.898;9.182;2023-11-21T16:50:48;7.70;99.90